sensor_id;sensor_type;location;lat;lon;timestamp;P1;durP1;ratioP1;P2;durP2;ratioP2
23082;SDS011;11709;52.420;10.538;2023-02-11T00:00:42;29.42;;;27.77;;
23082;SDS011;11709;52.420;10.538;2023-02-11T00:04:44;28.32;;;26.70;;
23082;SDS011;11709;52.420;10.538;2023-02-11T00:08:47;29.37;;;27.58;;
23082;SDS011;11709;52.420;10.538;2023-02-11T00:12:49;30.50;;;28.83;;
23082;SDS011;11709;52.420;10.538;2023-02-11T00:16:52;25.48;;;24.20;;
23082;SDS011;11709;52.420;10.538;2023-02-11T00:20:54;27.05;;;25.68;;
23082;SDS011;11709;52.420;10.538;2023-02-11T00:24:57;27.42;;;25.95;;
23082;SDS011;11709;52.420;10.538;2023-02-11T00:29:00;28.52;;;26.93;;
23082;SDS011;11709;52.420;10.538;2023-02-11T00:33:03;27.60;;;26.02;;
23082;SDS011;11709;52.420;10.538;2023-02-11T00:37:05;28.50;;;26.95;;
23082;SDS011;11709;52.420;10.538;2023-02-11T00:41:08;28.40;;;26.97;;
23082;SDS011;11709;52.420;10.538;2023-02-11T00:45:11;28.02;;;26.65;;
23082;SDS011;11709;52.420;10.538;2023-02-11T00:49:13;28.02;;;26.55;;
23082;SDS011;11709;52.420;10.538;2023-02-11T00:53:16;29.45;;;27.87;;
23082;SDS011;11709;52.420;10.538;2023-02-11T00:57:18;30.57;;;28.98;;
23082;SDS011;11709;52.420;10.538;2023-02-11T01:01:21;29.15;;;27.65;;
23082;SDS011;11709;52.420;10.538;2023-02-11T01:05:24;29.95;;;28.35;;
23082;SDS011;11709;52.420;10.538;2023-02-11T01:09:26;28.52;;;27.05;;
23082;SDS011;11709;52.420;10.538;2023-02-11T01:13:30;32.15;;;30.43;;
23082;SDS011;11709;52.420;10.538;2023-02-11T01:17:34;32.25;;;30.57;;
23082;SDS011;11709;52.420;10.538;2023-02-11T01:21:37;26.40;;;25.02;;
23082;SDS011;11709;52.420;10.538;2023-02-11T01:25:40;27.73;;;26.25;;
23082;SDS011;11709;52.420;10.538;2023-02-11T01:29:42;26.90;;;25.52;;
23082;SDS011;11709;52.420;10.538;2023-02-11T01:33:45;27.10;;;25.70;;
23082;SDS011;11709;52.420;10.538;2023-02-11T01:37:47;26.05;;;24.57;;
23082;SDS011;11709;52.420;10.538;2023-02-11T01:41:50;27.20;;;25.72;;
23082;SDS011;11709;52.420;10.538;2023-02-11T01:45:58;27.52;;;26.02;;
23082;SDS011;11709;52.420;10.538;2023-02-11T01:49:58;27.82;;;26.35;;
23082;SDS011;11709;52.420;10.538;2023-02-11T01:54:03;26.50;;;25.12;;
23082;SDS011;11709;52.420;10.538;2023-02-11T01:58:25;27.58;;;25.97;;
23082;SDS011;11709;52.420;10.538;2023-02-11T02:07:05;27.62;;;26.12;;
23082;SDS011;11709;52.420;10.538;2023-02-11T02:11:08;27.75;;;26.30;;
23082;SDS011;11709;52.420;10.538;2023-02-11T02:15:18;28.92;;;27.42;;
23082;SDS011;11709;52.420;10.538;2023-02-11T02:33:15;29.42;;;27.93;;
23082;SDS011;11709;52.420;10.538;2023-02-11T02:37:46;31.97;;;30.25;;
23082;SDS011;11709;52.420;10.538;2023-02-11T02:41:51;34.23;;;32.50;;
23082;SDS011;11709;52.420;10.538;2023-02-11T02:45:55;32.73;;;31.05;;
23082;SDS011;11709;52.420;10.538;2023-02-11T02:49:59;33.35;;;31.68;;
23082;SDS011;11709;52.420;10.538;2023-02-11T02:58:40;30.90;;;29.23;;
23082;SDS011;11709;52.420;10.538;2023-02-11T03:02:58;30.90;;;29.25;;
23082;SDS011;11709;52.420;10.538;2023-02-11T03:11:13;32.60;;;30.80;;
23082;SDS011;11709;52.420;10.538;2023-02-11T03:15:18;32.25;;;30.65;;
23082;SDS011;11709;52.420;10.538;2023-02-11T03:19:24;30.52;;;29.00;;
23082;SDS011;11709;52.420;10.538;2023-02-11T03:23:29;33.85;;;32.05;;
23082;SDS011;11709;52.420;10.538;2023-02-11T03:27:40;35.13;;;33.30;;
23082;SDS011;11709;52.420;10.538;2023-02-11T03:36:07;35.30;;;33.48;;
23082;SDS011;11709;52.420;10.538;2023-02-11T03:40:15;33.67;;;32.00;;
23082;SDS011;11709;52.420;10.538;2023-02-11T03:44:20;37.70;;;35.60;;
23082;SDS011;11709;52.420;10.538;2023-02-11T03:48:29;34.85;;;33.08;;
23082;SDS011;11709;52.420;10.538;2023-02-11T03:52:34;35.88;;;34.05;;
23082;SDS011;11709;52.420;10.538;2023-02-11T03:56:40;35.30;;;33.40;;
23082;SDS011;11709;52.420;10.538;2023-02-11T04:00:49;34.78;;;32.95;;
23082;SDS011;11709;52.420;10.538;2023-02-11T04:04:52;35.65;;;33.80;;
23082;SDS011;11709;52.420;10.538;2023-02-11T04:08:54;39.97;;;37.83;;
23082;SDS011;11709;52.420;10.538;2023-02-11T04:12:57;34.75;;;33.02;;
23082;SDS011;11709;52.420;10.538;2023-02-11T04:16:59;34.97;;;33.23;;
23082;SDS011;11709;52.420;10.538;2023-02-11T04:21:02;31.33;;;29.67;;
23082;SDS011;11709;52.420;10.538;2023-02-11T04:25:05;30.97;;;29.48;;
23082;SDS011;11709;52.420;10.538;2023-02-11T04:29:08;31.68;;;30.08;;
23082;SDS011;11709;52.420;10.538;2023-02-11T04:33:10;30.90;;;29.40;;
23082;SDS011;11709;52.420;10.538;2023-02-11T04:37:13;33.60;;;31.93;;
23082;SDS011;11709;52.420;10.538;2023-02-11T04:41:16;33.85;;;32.08;;
23082;SDS011;11709;52.420;10.538;2023-02-11T04:45:18;33.88;;;32.13;;
23082;SDS011;11709;52.420;10.538;2023-02-11T04:49:21;28.90;;;27.50;;
23082;SDS011;11709;52.420;10.538;2023-02-11T04:53:23;30.08;;;28.55;;
23082;SDS011;11709;52.420;10.538;2023-02-11T04:57:26;29.67;;;28.10;;
23082;SDS011;11709;52.420;10.538;2023-02-11T05:01:28;29.60;;;28.05;;
23082;SDS011;11709;52.420;10.538;2023-02-11T05:05:31;30.32;;;28.77;;
23082;SDS011;11709;52.420;10.538;2023-02-11T05:09:34;30.02;;;28.52;;
23082;SDS011;11709;52.420;10.538;2023-02-11T05:13:36;30.32;;;28.75;;
23082;SDS011;11709;52.420;10.538;2023-02-11T05:17:38;31.52;;;29.90;;
23082;SDS011;11709;52.420;10.538;2023-02-11T05:21:41;32.95;;;31.20;;
23082;SDS011;11709;52.420;10.538;2023-02-11T05:25:43;32.00;;;30.40;;
23082;SDS011;11709;52.420;10.538;2023-02-11T05:29:46;33.40;;;31.62;;
23082;SDS011;11709;52.420;10.538;2023-02-11T05:33:48;36.65;;;34.65;;
23082;SDS011;11709;52.420;10.538;2023-02-11T05:37:51;33.00;;;31.33;;
23082;SDS011;11709;52.420;10.538;2023-02-11T05:41:54;31.75;;;30.05;;
23082;SDS011;11709;52.420;10.538;2023-02-11T05:45:56;32.55;;;30.88;;
23082;SDS011;11709;52.420;10.538;2023-02-11T05:49:59;30.08;;;28.50;;
23082;SDS011;11709;52.420;10.538;2023-02-11T05:54:02;29.23;;;27.65;;
23082;SDS011;11709;52.420;10.538;2023-02-11T05:58:05;28.85;;;27.27;;
23082;SDS011;11709;52.420;10.538;2023-02-11T06:02:08;32.10;;;30.43;;
23082;SDS011;11709;52.420;10.538;2023-02-11T06:06:11;31.55;;;29.98;;
23082;SDS011;11709;52.420;10.538;2023-02-11T06:10:13;31.00;;;29.42;;
23082;SDS011;11709;52.420;10.538;2023-02-11T06:14:16;31.77;;;30.12;;
23082;SDS011;11709;52.420;10.538;2023-02-11T06:18:18;31.02;;;29.42;;
23082;SDS011;11709;52.420;10.538;2023-02-11T06:22:21;31.15;;;29.57;;
23082;SDS011;11709;52.420;10.538;2023-02-11T06:26:23;32.13;;;30.50;;
23082;SDS011;11709;52.420;10.538;2023-02-11T06:30:26;31.52;;;30.00;;
23082;SDS011;11709;52.420;10.538;2023-02-11T06:34:28;31.23;;;29.65;;
23082;SDS011;11709;52.420;10.538;2023-02-11T06:38:31;32.42;;;30.75;;
23082;SDS011;11709;52.420;10.538;2023-02-11T06:42:33;31.95;;;30.37;;
23082;SDS011;11709;52.420;10.538;2023-02-11T06:46:37;33.70;;;32.03;;
23082;SDS011;11709;52.420;10.538;2023-02-11T06:50:40;31.75;;;30.15;;
23082;SDS011;11709;52.420;10.538;2023-02-11T06:54:42;33.20;;;31.52;;
23082;SDS011;11709;52.420;10.538;2023-02-11T06:58:45;36.20;;;34.33;;
23082;SDS011;11709;52.420;10.538;2023-02-11T07:02:48;35.75;;;34.00;;
23082;SDS011;11709;52.420;10.538;2023-02-11T07:06:50;35.48;;;33.67;;
23082;SDS011;11709;52.420;10.538;2023-02-11T07:10:53;31.87;;;30.20;;
23082;SDS011;11709;52.420;10.538;2023-02-11T07:14:55;30.15;;;28.62;;
23082;SDS011;11709;52.420;10.538;2023-02-11T07:18:58;33.67;;;31.85;;
23082;SDS011;11709;52.420;10.538;2023-02-11T07:23:00;29.90;;;28.42;;
23082;SDS011;11709;52.420;10.538;2023-02-11T07:27:03;31.70;;;30.02;;
23082;SDS011;11709;52.420;10.538;2023-02-11T07:31:06;29.63;;;28.15;;
23082;SDS011;11709;52.420;10.538;2023-02-11T07:35:10;31.02;;;29.48;;
23082;SDS011;11709;52.420;10.538;2023-02-11T07:39:12;33.55;;;31.73;;
23082;SDS011;11709;52.420;10.538;2023-02-11T07:43:15;30.00;;;28.42;;
23082;SDS011;11709;52.420;10.538;2023-02-11T07:47:17;32.13;;;30.50;;
23082;SDS011;11709;52.420;10.538;2023-02-11T07:51:21;33.30;;;31.60;;
23082;SDS011;11709;52.420;10.538;2023-02-11T07:55:25;31.52;;;29.95;;
23082;SDS011;11709;52.420;10.538;2023-02-11T07:59:29;31.50;;;29.98;;
23082;SDS011;11709;52.420;10.538;2023-02-11T08:03:31;29.52;;;28.07;;
23082;SDS011;11709;52.420;10.538;2023-02-11T08:07:35;32.80;;;31.15;;
23082;SDS011;11709;52.420;10.538;2023-02-11T08:11:37;32.90;;;31.23;;
23082;SDS011;11709;52.420;10.538;2023-02-11T08:15:40;33.88;;;32.17;;
23082;SDS011;11709;52.420;10.538;2023-02-11T08:19:42;36.85;;;35.03;;
23082;SDS011;11709;52.420;10.538;2023-02-11T08:23:45;37.20;;;35.33;;
23082;SDS011;11709;52.420;10.538;2023-02-11T08:27:49;37.80;;;35.90;;
23082;SDS011;11709;52.420;10.538;2023-02-11T08:31:51;34.30;;;32.60;;
23082;SDS011;11709;52.420;10.538;2023-02-11T08:35:54;37.93;;;35.97;;
23082;SDS011;11709;52.420;10.538;2023-02-11T08:39:56;41.90;;;39.60;;
23082;SDS011;11709;52.420;10.538;2023-02-11T08:43:59;39.33;;;37.33;;
23082;SDS011;11709;52.420;10.538;2023-02-11T08:48:02;36.85;;;35.08;;
23082;SDS011;11709;52.420;10.538;2023-02-11T08:52:04;36.15;;;34.33;;
23082;SDS011;11709;52.420;10.538;2023-02-11T08:56:07;37.53;;;35.70;;
23082;SDS011;11709;52.420;10.538;2023-02-11T09:00:12;37.37;;;35.47;;
23082;SDS011;11709;52.420;10.538;2023-02-11T09:04:15;39.83;;;37.80;;
23082;SDS011;11709;52.420;10.538;2023-02-11T09:08:18;40.00;;;38.03;;
23082;SDS011;11709;52.420;10.538;2023-02-11T09:12:21;42.73;;;40.67;;
23082;SDS011;11709;52.420;10.538;2023-02-11T09:16:25;41.87;;;39.80;;
23082;SDS011;11709;52.420;10.538;2023-02-11T09:20:29;42.10;;;40.10;;
23082;SDS011;11709;52.420;10.538;2023-02-11T09:24:32;39.10;;;37.13;;
23082;SDS011;11709;52.420;10.538;2023-02-11T09:28:35;39.43;;;37.43;;
23082;SDS011;11709;52.420;10.538;2023-02-11T09:32:37;37.30;;;35.53;;
23082;SDS011;11709;52.420;10.538;2023-02-11T09:36:40;35.68;;;33.95;;
23082;SDS011;11709;52.420;10.538;2023-02-11T09:40:43;38.70;;;36.77;;
23082;SDS011;11709;52.420;10.538;2023-02-11T09:44:46;43.33;;;41.02;;
23082;SDS011;11709;52.420;10.538;2023-02-11T09:48:49;40.93;;;38.93;;
23082;SDS011;11709;52.420;10.538;2023-02-11T09:57:07;37.30;;;35.53;;
23082;SDS011;11709;52.420;10.538;2023-02-11T10:10:24;40.27;;;38.37;;
23082;SDS011;11709;52.420;10.538;2023-02-11T10:14:42;41.63;;;39.47;;
23082;SDS011;11709;52.420;10.538;2023-02-11T10:18:45;42.40;;;40.20;;
23082;SDS011;11709;52.420;10.538;2023-02-11T10:22:53;37.87;;;36.00;;
23082;SDS011;11709;52.420;10.538;2023-02-11T10:26:57;42.17;;;40.17;;
23082;SDS011;11709;52.420;10.538;2023-02-11T10:31:01;41.17;;;39.13;;
23082;SDS011;11709;52.420;10.538;2023-02-11T10:35:16;43.83;;;41.73;;
23082;SDS011;11709;52.420;10.538;2023-02-11T10:39:22;42.43;;;40.30;;
23082;SDS011;11709;52.420;10.538;2023-02-11T10:43:28;42.97;;;40.83;;
23082;SDS011;11709;52.420;10.538;2023-02-11T10:47:33;42.53;;;40.47;;
23082;SDS011;11709;52.420;10.538;2023-02-11T10:51:37;48.50;;;46.10;;
23082;SDS011;11709;52.420;10.538;2023-02-11T10:55:46;43.50;;;41.40;;
23082;SDS011;11709;52.420;10.538;2023-02-11T10:59:57;43.37;;;41.20;;
23082;SDS011;11709;52.420;10.538;2023-02-11T11:04:02;40.67;;;38.70;;
23082;SDS011;11709;52.420;10.538;2023-02-11T11:08:05;42.23;;;40.17;;
23082;SDS011;11709;52.420;10.538;2023-02-11T11:12:32;41.37;;;39.40;;
23082;SDS011;11709;52.420;10.538;2023-02-11T11:16:27;42.43;;;40.38;;
23082;SDS011;11709;52.420;10.538;2023-02-11T11:20:34;42.53;;;40.43;;
23082;SDS011;11709;52.420;10.538;2023-02-11T11:24:43;38.67;;;36.90;;
23082;SDS011;11709;52.420;10.538;2023-02-11T11:28:56;43.77;;;41.53;;
23082;SDS011;11709;52.420;10.538;2023-02-11T11:33:01;41.53;;;39.47;;
23082;SDS011;11709;52.420;10.538;2023-02-11T11:37:18;38.57;;;36.73;;
23082;SDS011;11709;52.420;10.538;2023-02-11T11:45:32;39.40;;;37.50;;
23082;SDS011;11709;52.420;10.538;2023-02-11T11:49:35;42.20;;;40.20;;
23082;SDS011;11709;52.420;10.538;2023-02-11T11:53:49;42.73;;;40.73;;
23082;SDS011;11709;52.420;10.538;2023-02-11T11:57:48;47.17;;;44.87;;
23082;SDS011;11709;52.420;10.538;2023-02-11T12:01:56;44.43;;;42.30;;
23082;SDS011;11709;52.420;10.538;2023-02-11T12:10:15;42.70;;;40.63;;
23082;SDS011;11709;52.420;10.538;2023-02-11T12:27:44;44.13;;;42.00;;
23082;SDS011;11709;52.420;10.538;2023-02-11T12:50:11;42.03;;;40.03;;
23082;SDS011;11709;52.420;10.538;2023-02-11T12:54:20;48.60;;;46.17;;
23082;SDS011;11709;52.420;10.538;2023-02-11T12:58:26;47.33;;;45.07;;
23082;SDS011;11709;52.420;10.538;2023-02-11T13:02:38;48.67;;;46.30;;
23082;SDS011;11709;52.420;10.538;2023-02-11T13:06:54;43.67;;;41.50;;
23082;SDS011;11709;52.420;10.538;2023-02-11T13:11:01;45.10;;;42.97;;
23082;SDS011;11709;52.420;10.538;2023-02-11T13:15:04;45.00;;;42.83;;
23082;SDS011;11709;52.420;10.538;2023-02-11T13:23:43;41.33;;;39.30;;
23082;SDS011;11709;52.420;10.538;2023-02-11T13:27:53;43.00;;;41.03;;
23082;SDS011;11709;52.420;10.538;2023-02-11T13:32:10;41.10;;;39.13;;
23082;SDS011;11709;52.420;10.538;2023-02-11T13:36:24;40.40;;;38.50;;
23082;SDS011;11709;52.420;10.538;2023-02-11T13:40:24;40.50;;;38.55;;
23082;SDS011;11709;52.420;10.538;2023-02-11T13:44:37;44.23;;;42.03;;
23082;SDS011;11709;52.420;10.538;2023-02-11T13:48:47;42.23;;;40.20;;
23082;SDS011;11709;52.420;10.538;2023-02-11T13:52:56;42.90;;;40.77;;
23082;SDS011;11709;52.420;10.538;2023-02-11T14:01:40;45.13;;;42.97;;
23082;SDS011;11709;52.420;10.538;2023-02-11T14:14:57;46.30;;;43.93;;
23082;SDS011;11709;52.420;10.538;2023-02-11T14:19:01;45.30;;;43.13;;
23082;SDS011;11709;52.420;10.538;2023-02-11T14:23:04;46.47;;;44.23;;
23082;SDS011;11709;52.420;10.538;2023-02-11T14:27:14;49.60;;;47.10;;
23082;SDS011;11709;52.420;10.538;2023-02-11T14:31:32;46.17;;;43.97;;
23082;SDS011;11709;52.420;10.538;2023-02-11T14:43:57;46.43;;;44.17;;
23082;SDS011;11709;52.420;10.538;2023-02-11T14:48:03;44.23;;;42.17;;
23082;SDS011;11709;52.420;10.538;2023-02-11T14:56:30;44.17;;;42.00;;
23082;SDS011;11709;52.420;10.538;2023-02-11T15:00:34;45.63;;;43.33;;
23082;SDS011;11709;52.420;10.538;2023-02-11T15:04:36;44.30;;;42.10;;
23082;SDS011;11709;52.420;10.538;2023-02-11T15:08:41;43.50;;;41.37;;
23082;SDS011;11709;52.420;10.538;2023-02-11T15:12:45;41.73;;;39.63;;
23082;SDS011;11709;52.420;10.538;2023-02-11T15:16:48;42.37;;;40.20;;
23082;SDS011;11709;52.420;10.538;2023-02-11T15:20:53;41.73;;;39.80;;
23082;SDS011;11709;52.420;10.538;2023-02-11T15:24:57;41.13;;;39.23;;
23082;SDS011;11709;52.420;10.538;2023-02-11T15:29:01;42.27;;;40.20;;
23082;SDS011;11709;52.420;10.538;2023-02-11T15:33:04;38.97;;;37.10;;
23082;SDS011;11709;52.420;10.538;2023-02-11T15:37:21;39.43;;;37.60;;
23082;SDS011;11709;52.420;10.538;2023-02-11T15:41:34;42.73;;;40.63;;
23082;SDS011;11709;52.420;10.538;2023-02-11T15:45:36;45.75;;;43.55;;
23082;SDS011;11709;52.420;10.538;2023-02-11T15:49:42;39.93;;;38.00;;
23082;SDS011;11709;52.420;10.538;2023-02-11T15:53:47;42.90;;;40.80;;
23082;SDS011;11709;52.420;10.538;2023-02-11T15:57:53;43.43;;;41.27;;
23082;SDS011;11709;52.420;10.538;2023-02-11T16:02:03;48.78;;;46.18;;
23082;SDS011;11709;52.420;10.538;2023-02-11T16:10:30;42.93;;;40.83;;
23082;SDS011;11709;52.420;10.538;2023-02-11T16:14:35;43.45;;;41.30;;
23082;SDS011;11709;52.420;10.538;2023-02-11T16:18:42;46.03;;;43.77;;
23082;SDS011;11709;52.420;10.538;2023-02-11T16:22:46;45.77;;;43.50;;
23082;SDS011;11709;52.420;10.538;2023-02-11T16:26:50;43.60;;;41.50;;
23082;SDS011;11709;52.420;10.538;2023-02-11T16:30:55;39.05;;;37.15;;
23082;SDS011;11709;52.420;10.538;2023-02-11T16:34:58;41.90;;;39.73;;
23082;SDS011;11709;52.420;10.538;2023-02-11T16:39:01;41.17;;;39.17;;
23082;SDS011;11709;52.420;10.538;2023-02-11T16:43:05;45.00;;;42.73;;
23082;SDS011;11709;52.420;10.538;2023-02-11T16:47:13;44.17;;;42.00;;
23082;SDS011;11709;52.420;10.538;2023-02-11T16:51:13;44.67;;;42.47;;
23082;SDS011;11709;52.420;10.538;2023-02-11T16:55:15;43.57;;;41.37;;
23082;SDS011;11709;52.420;10.538;2023-02-11T16:59:18;44.33;;;42.07;;
23082;SDS011;11709;52.420;10.538;2023-02-11T17:03:21;43.47;;;41.30;;
23082;SDS011;11709;52.420;10.538;2023-02-11T17:07:26;41.80;;;39.80;;
23082;SDS011;11709;52.420;10.538;2023-02-11T17:11:28;43.47;;;41.37;;
23082;SDS011;11709;52.420;10.538;2023-02-11T17:15:31;44.57;;;42.37;;
23082;SDS011;11709;52.420;10.538;2023-02-11T17:19:34;43.30;;;41.17;;
23082;SDS011;11709;52.420;10.538;2023-02-11T17:23:37;40.77;;;38.87;;
23082;SDS011;11709;52.420;10.538;2023-02-11T17:27:39;42.13;;;40.07;;
23082;SDS011;11709;52.420;10.538;2023-02-11T17:31:42;42.27;;;40.27;;
23082;SDS011;11709;52.420;10.538;2023-02-11T17:35:45;43.20;;;41.17;;
23082;SDS011;11709;52.420;10.538;2023-02-11T17:39:47;46.47;;;44.20;;
23082;SDS011;11709;52.420;10.538;2023-02-11T17:43:50;45.43;;;43.27;;
23082;SDS011;11709;52.420;10.538;2023-02-11T17:47:53;38.90;;;36.90;;
23082;SDS011;11709;52.420;10.538;2023-02-11T17:51:56;37.13;;;35.27;;
23082;SDS011;11709;52.420;10.538;2023-02-11T17:56:00;35.13;;;33.37;;
23082;SDS011;11709;52.420;10.538;2023-02-11T18:00:05;40.73;;;38.65;;
23082;SDS011;11709;52.420;10.538;2023-02-11T18:04:09;38.00;;;36.13;;
23082;SDS011;11709;52.420;10.538;2023-02-11T18:08:14;40.33;;;38.37;;
23082;SDS011;11709;52.420;10.538;2023-02-11T18:12:17;37.70;;;35.83;;
23082;SDS011;11709;52.420;10.538;2023-02-11T18:16:26;36.97;;;35.10;;
23082;SDS011;11709;52.420;10.538;2023-02-11T18:20:30;36.57;;;34.77;;
23082;SDS011;11709;52.420;10.538;2023-02-11T18:24:32;38.43;;;36.53;;
23082;SDS011;11709;52.420;10.538;2023-02-11T18:28:35;38.27;;;36.37;;
23082;SDS011;11709;52.420;10.538;2023-02-11T18:32:38;39.17;;;37.20;;
23082;SDS011;11709;52.420;10.538;2023-02-11T18:36:40;39.13;;;37.20;;
23082;SDS011;11709;52.420;10.538;2023-02-11T18:40:43;37.60;;;35.73;;
23082;SDS011;11709;52.420;10.538;2023-02-11T18:44:50;38.53;;;36.63;;
23082;SDS011;11709;52.420;10.538;2023-02-11T18:48:52;43.47;;;41.13;;
23082;SDS011;11709;52.420;10.538;2023-02-11T18:52:55;37.47;;;35.63;;
23082;SDS011;11709;52.420;10.538;2023-02-11T18:56:57;37.57;;;35.70;;
23082;SDS011;11709;52.420;10.538;2023-02-11T19:01:00;41.83;;;39.63;;
23082;SDS011;11709;52.420;10.538;2023-02-11T19:05:03;35.00;;;33.20;;
23082;SDS011;11709;52.420;10.538;2023-02-11T19:09:07;34.23;;;32.57;;
23082;SDS011;11709;52.420;10.538;2023-02-11T19:13:11;35.27;;;33.47;;
23082;SDS011;11709;52.420;10.538;2023-02-11T19:17:14;35.57;;;33.87;;
23082;SDS011;11709;52.420;10.538;2023-02-11T19:21:18;33.90;;;32.33;;
23082;SDS011;11709;52.420;10.538;2023-02-11T19:25:21;36.67;;;34.80;;
23082;SDS011;11709;52.420;10.538;2023-02-11T19:29:23;35.73;;;34.03;;
23082;SDS011;11709;52.420;10.538;2023-02-11T19:33:26;37.37;;;35.53;;
23082;SDS011;11709;52.420;10.538;2023-02-11T19:37:28;35.30;;;33.63;;
23082;SDS011;11709;52.420;10.538;2023-02-11T19:41:31;37.50;;;35.63;;
23082;SDS011;11709;52.420;10.538;2023-02-11T19:45:35;35.37;;;33.60;;
23082;SDS011;11709;52.420;10.538;2023-02-11T19:49:38;32.97;;;31.30;;
23082;SDS011;11709;52.420;10.538;2023-02-11T19:53:41;34.57;;;32.80;;
23082;SDS011;11709;52.420;10.538;2023-02-11T19:57:45;31.02;;;29.48;;
23082;SDS011;11709;52.420;10.538;2023-02-11T20:01:47;32.90;;;31.17;;
23082;SDS011;11709;52.420;10.538;2023-02-11T20:05:50;31.42;;;29.90;;
23082;SDS011;11709;52.420;10.538;2023-02-11T20:09:52;34.67;;;32.93;;
23082;SDS011;11709;52.420;10.538;2023-02-11T20:13:55;35.78;;;33.98;;
23082;SDS011;11709;52.420;10.538;2023-02-11T20:17:58;32.98;;;31.35;;
23082;SDS011;11709;52.420;10.538;2023-02-11T20:22:01;33.77;;;32.00;;
23082;SDS011;11709;52.420;10.538;2023-02-11T20:26:04;33.30;;;31.73;;
23082;SDS011;11709;52.420;10.538;2023-02-11T20:30:11;34.25;;;32.53;;
23082;SDS011;11709;52.420;10.538;2023-02-11T20:34:18;34.80;;;33.10;;
23082;SDS011;11709;52.420;10.538;2023-02-11T20:38:18;35.83;;;34.07;;
23082;SDS011;11709;52.420;10.538;2023-02-11T20:42:20;32.63;;;31.05;;
23082;SDS011;11709;52.420;10.538;2023-02-11T20:46:24;35.23;;;33.57;;
23082;SDS011;11709;52.420;10.538;2023-02-11T20:50:28;39.43;;;37.53;;
23082;SDS011;11709;52.420;10.538;2023-02-11T20:54:30;35.17;;;33.40;;
23082;SDS011;11709;52.420;10.538;2023-02-11T20:58:33;36.10;;;34.30;;
23082;SDS011;11709;52.420;10.538;2023-02-11T21:02:36;31.50;;;29.97;;
23082;SDS011;11709;52.420;10.538;2023-02-11T21:06:40;32.42;;;30.77;;
23082;SDS011;11709;52.420;10.538;2023-02-11T21:10:44;35.40;;;33.63;;
23082;SDS011;11709;52.420;10.538;2023-02-11T21:14:48;36.57;;;34.70;;
23082;SDS011;11709;52.420;10.538;2023-02-11T21:18:51;41.10;;;39.03;;
23082;SDS011;11709;52.420;10.538;2023-02-11T21:22:55;36.03;;;34.27;;
23082;SDS011;11709;52.420;10.538;2023-02-11T21:26:57;37.37;;;35.50;;
23082;SDS011;11709;52.420;10.538;2023-02-11T21:31:00;34.48;;;32.83;;
23082;SDS011;11709;52.420;10.538;2023-02-11T21:35:03;38.93;;;37.10;;
23082;SDS011;11709;52.420;10.538;2023-02-11T21:39:06;37.77;;;35.93;;
23082;SDS011;11709;52.420;10.538;2023-02-11T21:43:08;33.97;;;32.33;;
23082;SDS011;11709;52.420;10.538;2023-02-11T21:47:11;35.43;;;33.57;;
23082;SDS011;11709;52.420;10.538;2023-02-11T21:51:15;38.53;;;36.63;;
23082;SDS011;11709;52.420;10.538;2023-02-11T21:55:19;37.67;;;35.80;;
23082;SDS011;11709;52.420;10.538;2023-02-11T21:59:21;37.87;;;36.07;;
23082;SDS011;11709;52.420;10.538;2023-02-11T22:03:25;37.07;;;35.10;;
23082;SDS011;11709;52.420;10.538;2023-02-11T22:07:28;37.97;;;36.07;;
23082;SDS011;11709;52.420;10.538;2023-02-11T22:11:30;38.57;;;36.67;;
23082;SDS011;11709;52.420;10.538;2023-02-11T22:15:33;40.63;;;38.57;;
23082;SDS011;11709;52.420;10.538;2023-02-11T22:19:35;37.33;;;35.53;;
23082;SDS011;11709;52.420;10.538;2023-02-11T22:23:38;37.90;;;36.03;;
23082;SDS011;11709;52.420;10.538;2023-02-11T22:27:41;37.40;;;35.53;;
23082;SDS011;11709;52.420;10.538;2023-02-11T22:31:43;36.27;;;34.50;;
23082;SDS011;11709;52.420;10.538;2023-02-11T22:35:46;34.47;;;32.90;;
23082;SDS011;11709;52.420;10.538;2023-02-11T22:39:48;43.87;;;41.57;;
23082;SDS011;11709;52.420;10.538;2023-02-11T22:43:51;38.33;;;36.43;;
23082;SDS011;11709;52.420;10.538;2023-02-11T22:47:53;39.83;;;37.93;;
23082;SDS011;11709;52.420;10.538;2023-02-11T22:51:56;38.57;;;36.67;;
23082;SDS011;11709;52.420;10.538;2023-02-11T22:56:02;39.50;;;37.53;;
23082;SDS011;11709;52.420;10.538;2023-02-11T23:00:07;41.10;;;39.00;;
23082;SDS011;11709;52.420;10.538;2023-02-11T23:04:12;38.00;;;36.13;;
23082;SDS011;11709;52.420;10.538;2023-02-11T23:08:16;35.27;;;33.67;;
23082;SDS011;11709;52.420;10.538;2023-02-11T23:12:19;38.27;;;36.40;;
23082;SDS011;11709;52.420;10.538;2023-02-11T23:16:28;38.40;;;36.53;;
23082;SDS011;11709;52.420;10.538;2023-02-11T23:20:27;40.07;;;38.07;;
23082;SDS011;11709;52.420;10.538;2023-02-11T23:24:29;38.27;;;36.40;;
23082;SDS011;11709;52.420;10.538;2023-02-11T23:28:32;37.17;;;35.37;;
23082;SDS011;11709;52.420;10.538;2023-02-11T23:32:36;34.83;;;33.20;;
23082;SDS011;11709;52.420;10.538;2023-02-11T23:36:39;39.30;;;37.40;;
23082;SDS011;11709;52.420;10.538;2023-02-11T23:40:41;40.97;;;38.97;;
23082;SDS011;11709;52.420;10.538;2023-02-11T23:44:44;39.43;;;37.53;;
23082;SDS011;11709;52.420;10.538;2023-02-11T23:48:47;41.73;;;39.67;;
23082;SDS011;11709;52.420;10.538;2023-02-11T23:52:51;39.80;;;37.83;;
23082;SDS011;11709;52.420;10.538;2023-02-11T23:56:53;39.67;;;37.77;;
